Time;durP1;ratioP1;P1;durP2;ratioP2;P2;SDS_P1;SDS_P2;PMS_P1;PMS_P2;Temp;Humidity;BMP_temperature;BMP_pressure;BME280_temperature;BME280_humidity;BME280_pressure;Samples;Min_cycle;Max_cycle;Signal;HPM_P1;HPM_P2
2023/09/17 00:00:37;;;;;;;4.50;3.05;;;;;;;;;;5053358;28;20029;-60
2023/09/17 00:03:03;;;;;;;4.38;3.38;;;;;;;;;;5053339;28;20032;-60
2023/09/17 00:05:29;;;;;;;3.38;2.42;;;;;;;;;;5053073;28;20060;-60
2023/09/17 00:07:55;;;;;;;2.97;2.45;;;;;;;;;;5053277;28;20108;-59
2023/09/17 00:10:22;;;;;;;3.72;2.80;;;;;;;;;;5053845;28;20477;-60
2023/09/17 00:12:48;;;;;;;3.60;2.50;;;;;;;;;;5053003;28;20025;-60
2023/09/17 00:15:14;;;;;;;4.25;2.97;;;;;;;;;;5052938;28;20482;-60
2023/09/17 00:17:40;;;;;;;4.57;3.47;;;;;;;;;;5053109;28;20099;-60
2023/09/17 00:20:10;;;;;;;3.42;2.40;;;;;;;;;;5053665;28;20029;-60
2023/09/17 00:22:36;;;;;;;3.83;2.83;;;;;;;;;;5055188;28;20033;-59
2023/09/17 00:25:04;;;;;;;3.47;2.95;;;;;;;;;;5056946;28;20036;-59
2023/09/17 00:27:30;;;;;;;5.07;2.78;;;;;;;;;;5057054;28;20017;-60
2023/09/17 00:29:56;;;;;;;3.05;2.47;;;;;;;;;;5056594;28;20032;-60
2023/09/17 00:32:22;;;;;;;3.35;2.45;;;;;;;;;;5056793;28;20013;-60
2023/09/17 00:34:48;;;;;;;3.55;2.95;;;;;;;;;;5056502;28;20477;-60
2023/09/17 00:37:14;;;;;;;3.90;2.58;;;;;;;;;;5056411;28;20387;-60
2023/09/17 00:39:40;;;;;;;4.85;3.20;;;;;;;;;;5057144;28;20037;-60
2023/09/17 00:42:06;;;;;;;2.85;2.35;;;;;;;;;;5056828;28;20056;-60
2023/09/17 00:44:32;;;;;;;6.18;2.22;;;;;;;;;;5057018;28;20083;-59
2023/09/17 00:47:00;;;;;;;3.67;2.88;;;;;;;;;;5057009;28;20029;-60
2023/09/17 00:49:26;;;;;;;4.80;3.35;;;;;;;;;;5056403;28;20381;-59
2023/09/17 00:51:52;;;;;;;4.55;3.60;;;;;;;;;;5056122;28;20028;-60
2023/09/17 00:54:19;;;;;;;3.63;3.10;;;;;;;;;;5056610;28;20050;-60
2023/09/17 00:56:46;;;;;;;4.07;3.35;;;;;;;;;;5056033;28;20463;-60
2023/09/17 00:59:12;;;;;;;3.90;2.80;;;;;;;;;;5055961;28;20601;-60
2023/09/17 01:01:38;;;;;;;5.10;3.78;;;;;;;;;;5056480;28;20112;-60
2023/09/17 01:04:04;;;;;;;5.55;3.17;;;;;;;;;;5055835;28;20021;-60
2023/09/17 01:06:30;;;;;;;4.68;3.60;;;;;;;;;;5055867;28;20025;-60
2023/09/17 01:08:56;;;;;;;4.00;2.78;;;;;;;;;;5055490;28;20013;-59
2023/09/17 01:11:24;;;;;;;3.53;2.97;;;;;;;;;;5055436;28;20459;-60
2023/09/17 01:13:58;;;;;;;3.47;3.17;;;;;;;;;;5055711;28;20029;-59
2023/09/17 01:16:26;;;;;;;3.70;2.92;;;;;;;;;;5055699;28;20013;-60
2023/09/17 01:18:53;;;;;;;4.82;3.33;;;;;;;;;;5056059;28;20031;-60
2023/09/17 01:21:26;;;;;;;4.03;3.47;;;;;;;;;;5055762;28;20025;-60
2023/09/17 01:24:05;;;;;;;4.80;3.15;;;;;;;;;;5056144;28;20052;-60
2023/09/17 01:26:33;;;;;;;3.97;3.13;;;;;;;;;;5056110;28;20021;-59
2023/09/17 01:29:00;;;;;;;4.90;3.22;;;;;;;;;;5055714;28;20079;-60
2023/09/17 01:31:27;;;;;;;3.65;3.22;;;;;;;;;;5055418;28;20360;-60
2023/09/17 01:33:53;;;;;;;5.75;3.05;;;;;;;;;;5055826;28;20427;-59
2023/09/17 01:36:19;;;;;;;4.30;3.42;;;;;;;;;;5055255;28;20051;-60
2023/09/17 01:38:47;;;;;;;4.43;3.65;;;;;;;;;;5055791;28;20033;-60
2023/09/17 01:41:15;;;;;;;4.22;3.13;;;;;;;;;;5055714;28;20148;-60
2023/09/17 01:43:43;;;;;;;6.88;3.30;;;;;;;;;;5055948;28;20028;-59
2023/09/17 01:46:09;;;;;;;3.90;3.28;;;;;;;;;;5055117;28;20159;-60
2023/09/17 01:48:35;;;;;;;6.20;3.67;;;;;;;;;;5054741;28;20100;-60
2023/09/17 01:51:02;;;;;;;6.80;3.58;;;;;;;;;;5055699;28;20465;-60
2023/09/17 01:53:29;;;;;;;5.25;3.72;;;;;;;;;;5054956;28;20040;-60
2023/09/17 01:55:56;;;;;;;4.80;3.47;;;;;;;;;;5054947;28;20025;-60
2023/09/17 01:58:23;;;;;;;6.40;4.07;;;;;;;;;;5054878;28;20112;-60
2023/09/17 02:00:49;;;;;;;5.75;3.67;;;;;;;;;;5055616;28;20025;-60
2023/09/17 02:03:15;;;;;;;6.18;4.38;;;;;;;;;;5054798;28;20032;-60
2023/09/17 02:05:41;;;;;;;4.75;4.25;;;;;;;;;;5055282;28;20025;-60
2023/09/17 02:08:07;;;;;;;8.38;4.95;;;;;;;;;;5054661;28;20074;-60
2023/09/17 02:10:33;;;;;;;5.85;4.38;;;;;;;;;;5055217;28;20031;-60
2023/09/17 02:12:59;;;;;;;5.60;4.20;;;;;;;;;;5055255;28;20017;-60
2023/09/17 02:15:25;;;;;;;4.65;3.65;;;;;;;;;;5055135;28;20021;-60
2023/09/17 02:17:51;;;;;;;5.53;3.95;;;;;;;;;;5054530;28;20025;-60
2023/09/17 02:20:17;;;;;;;4.55;3.95;;;;;;;;;;5055009;28;20036;-60
2023/09/17 02:22:43;;;;;;;6.82;4.15;;;;;;;;;;5055248;28;20329;-60
2023/09/17 02:25:10;;;;;;;4.45;3.55;;;;;;;;;;5054863;28;20359;-60
2023/09/17 02:27:36;;;;;;;3.80;3.17;;;;;;;;;;5054040;28;20506;-60
2023/09/17 02:30:04;;;;;;;3.90;3.25;;;;;;;;;;5054823;28;20402;-60
2023/09/17 02:32:30;;;;;;;4.13;3.67;;;;;;;;;;5054255;28;20017;-60
2023/09/17 02:34:57;;;;;;;4.68;3.78;;;;;;;;;;5054958;28;20047;-60
2023/09/17 02:37:23;;;;;;;4.78;3.67;;;;;;;;;;5054478;28;20122;-60
2023/09/17 02:39:49;;;;;;;4.93;3.90;;;;;;;;;;5054706;28;20039;-60
2023/09/17 02:42:16;;;;;;;5.53;3.60;;;;;;;;;;5054523;28;20112;-60
2023/09/17 02:44:42;;;;;;;5.20;3.40;;;;;;;;;;5054075;28;20028;-60
2023/09/17 02:47:09;;;;;;;4.07;2.90;;;;;;;;;;5053986;28;20021;-60
2023/09/17 02:49:35;;;;;;;4.75;3.55;;;;;;;;;;5054626;28;20029;-60
2023/09/17 02:52:01;;;;;;;5.70;4.05;;;;;;;;;;5054413;28;20112;-60
2023/09/17 02:54:27;;;;;;;4.15;3.75;;;;;;;;;;5053605;28;20025;-60
2023/09/17 02:56:53;;;;;;;4.25;3.85;;;;;;;;;;5053811;28;20467;-60
2023/09/17 02:59:19;;;;;;;3.80;3.35;;;;;;;;;;5054094;28;20017;-60
2023/09/17 03:01:45;;;;;;;4.80;3.83;;;;;;;;;;5053709;28;20054;-60
2023/09/17 03:04:11;;;;;;;4.50;3.67;;;;;;;;;;5053820;28;20108;-60
2023/09/17 03:06:37;;;;;;;4.43;3.50;;;;;;;;;;5053682;28;20048;-60
2023/09/17 03:09:11;;;;;;;6.28;3.25;;;;;;;;;;5054211;28;20036;-60
2023/09/17 03:11:37;;;;;;;7.15;4.05;;;;;;;;;;5053841;28;20029;-60
2023/09/17 03:14:03;;;;;;;4.65;3.70;;;;;;;;;;5054122;28;20395;-60
2023/09/17 03:16:30;;;;;;;4.22;3.80;;;;;;;;;;5053542;28;20033;-60
2023/09/17 03:18:56;;;;;;;4.68;3.78;;;;;;;;;;5054052;28;20028;-60
2023/09/17 03:21:22;;;;;;;4.90;3.63;;;;;;;;;;5053419;28;20111;-60
2023/09/17 03:23:49;;;;;;;5.85;4.35;;;;;;;;;;5053383;28;20025;-60
2023/09/17 03:26:15;;;;;;;4.32;3.92;;;;;;;;;;5053958;28;20426;-60
2023/09/17 03:28:41;;;;;;;4.55;4.15;;;;;;;;;;5053363;28;20021;-60
2023/09/17 03:31:07;;;;;;;5.28;4.07;;;;;;;;;;5053985;28;20028;-60
2023/09/17 03:33:33;;;;;;;5.70;4.70;;;;;;;;;;5053379;28;20017;-60
2023/09/17 03:35:59;;;;;;;4.57;3.75;;;;;;;;;;5053162;28;20343;-60
2023/09/17 03:38:25;;;;;;;4.97;4.00;;;;;;;;;;5053738;28;20367;-60
2023/09/17 03:40:51;;;;;;;5.35;3.75;;;;;;;;;;5053808;28;20028;-60
2023/09/17 03:43:17;;;;;;;4.45;3.92;;;;;;;;;;5053801;28;20040;-60
2023/09/17 03:45:43;;;;;;;5.10;4.60;;;;;;;;;;5053278;28;20029;-60
2023/09/17 03:48:09;;;;;;;4.35;3.95;;;;;;;;;;5053742;28;20110;-60
2023/09/17 03:50:39;;;;;;;3.85;3.45;;;;;;;;;;5053179;28;20065;-60
2023/09/17 03:53:05;;;;;;;4.73;3.90;;;;;;;;;;5053760;28;20463;-60
2023/09/17 03:55:31;;;;;;;4.90;4.07;;;;;;;;;;5053382;28;20067;-60
2023/09/17 03:57:57;;;;;;;4.47;3.78;;;;;;;;;;5055502;28;20021;-60
2023/09/17 04:00:24;;;;;;;5.25;3.85;;;;;;;;;;5057914;28;20029;-60
2023/09/17 04:02:52;;;;;;;5.55;3.83;;;;;;;;;;5057045;28;20032;-60
2023/09/17 04:05:18;;;;;;;6.35;4.63;;;;;;;;;;5057015;28;20025;-60
2023/09/17 04:07:44;;;;;;;4.55;3.88;;;;;;;;;;5056970;28;20028;-60
2023/09/17 04:10:13;;;;;;;5.65;4.70;;;;;;;;;;5057244;28;20039;-60
2023/09/17 04:12:40;;;;;;;5.72;3.72;;;;;;;;;;5057211;28;20031;-59
2023/09/17 04:15:10;;;;;;;5.97;4.32;;;;;;;;;;5057116;28;20405;-59
2023/09/17 04:17:36;;;;;;;5.25;4.15;;;;;;;;;;5057059;28;20082;-60
2023/09/17 04:20:03;;;;;;;7.97;4.63;;;;;;;;;;5057238;28;20037;-59
2023/09/17 04:22:29;;;;;;;5.97;4.38;;;;;;;;;;5056609;28;20078;-60
2023/09/17 04:24:55;;;;;;;6.35;4.63;;;;;;;;;;5056661;28;20029;-59
2023/09/17 04:27:22;;;;;;;4.88;4.28;;;;;;;;;;5056625;28;20025;-59
2023/09/17 04:29:48;;;;;;;4.78;4.38;;;;;;;;;;5057115;28;20466;-60
2023/09/17 04:32:14;;;;;;;4.97;4.32;;;;;;;;;;5056483;28;20025;-59
2023/09/17 04:34:40;;;;;;;5.38;4.03;;;;;;;;;;5056770;28;20036;-59
2023/09/17 04:37:05;;;;;;;4.80;4.20;;;;;;;;;;5056955;28;20045;-59
2023/09/17 04:39:31;;;;;;;4.93;4.43;;;;;;;;;;5056668;28;20036;-59
2023/09/17 04:41:57;;;;;;;5.07;4.30;;;;;;;;;;5056849;28;20103;-59
2023/09/17 04:44:23;;;;;;;5.38;4.45;;;;;;;;;;5056550;28;20029;-59
2023/09/17 04:46:49;;;;;;;4.80;4.15;;;;;;;;;;5055989;28;20024;-59
2023/09/17 04:49:15;;;;;;;4.43;4.03;;;;;;;;;;5056942;28;20378;-60
2023/09/17 04:51:41;;;;;;;5.70;4.55;;;;;;;;;;5056216;28;20017;-59
2023/09/17 04:54:07;;;;;;;7.03;4.90;;;;;;;;;;5056670;28;20021;-60
2023/09/17 04:56:35;;;;;;;5.38;4.85;;;;;;;;;;5056129;28;20032;-60
2023/09/17 04:59:01;;;;;;;4.78;4.30;;;;;;;;;;5056499;28;20064;-59
2023/09/17 05:01:27;;;;;;;4.47;3.97;;;;;;;;;;5055951;28;20029;-59
2023/09/17 05:03:53;;;;;;;4.78;4.32;;;;;;;;;;5056010;28;20379;-59
2023/09/17 05:06:20;;;;;;;5.03;4.25;;;;;;;;;;5055985;28;20029;-60
2023/09/17 05:08:45;;;;;;;5.88;4.25;;;;;;;;;;5055227;28;20032;-59
2023/09/17 05:11:12;;;;;;;6.60;4.30;;;;;;;;;;5056472;28;20394;-59
2023/09/17 05:13:38;;;;;;;7.20;4.90;;;;;;;;;;5055821;28;20025;-59
2023/09/17 05:16:04;;;;;;;8.05;4.75;;;;;;;;;;5055859;28;20082;-59
2023/09/17 05:18:30;;;;;;;5.18;4.15;;;;;;;;;;5055961;28;20032;-59
2023/09/17 05:20:56;;;;;;;4.75;4.20;;;;;;;;;;5055723;28;20029;-59
2023/09/17 05:23:22;;;;;;;4.55;4.13;;;;;;;;;;5056172;28;20033;-59
2023/09/17 05:25:48;;;;;;;5.38;4.72;;;;;;;;;;5055597;28;20028;-59
2023/09/17 05:28:15;;;;;;;5.70;5.05;;;;;;;;;;5055276;28;20481;-60
2023/09/17 05:30:41;;;;;;;5.28;4.78;;;;;;;;;;5056177;28;20077;-59
2023/09/17 05:33:07;;;;;;;5.72;4.28;;;;;;;;;;5055522;28;20367;-59
2023/09/17 05:35:36;;;;;;;5.03;4.53;;;;;;;;;;5055906;28;20058;-59
2023/09/17 05:38:02;;;;;;;5.25;4.35;;;;;;;;;;5055945;28;20041;-59
2023/09/17 05:40:28;;;;;;;5.72;4.25;;;;;;;;;;5055334;28;20485;-59
2023/09/17 05:42:54;;;;;;;5.22;4.72;;;;;;;;;;5054960;28;20025;-59
2023/09/17 05:45:20;;;;;;;5.10;4.28;;;;;;;;;;5054967;28;20013;-59
2023/09/17 05:47:46;;;;;;;5.00;4.50;;;;;;;;;;5055555;28;20044;-60
2023/09/17 05:50:12;;;;;;;5.63;4.78;;;;;;;;;;5055292;28;20025;-59
2023/09/17 05:52:38;;;;;;;5.00;4.00;;;;;;;;;;5055154;28;20079;-60
2023/09/17 05:55:04;;;;;;;4.22;3.80;;;;;;;;;;5055590;28;20324;-60
2023/09/17 05:57:32;;;;;;;4.18;3.60;;;;;;;;;;5055057;28;20029;-59
2023/09/17 05:59:59;;;;;;;4.45;4.00;;;;;;;;;;5055461;28;20025;-59
2023/09/17 06:02:28;;;;;;;5.50;4.35;;;;;;;;;;5055441;28;20033;-59
2023/09/17 06:04:54;;;;;;;5.15;4.20;;;;;;;;;;5055677;28;20085;-60
2023/09/17 06:07:20;;;;;;;5.60;4.53;;;;;;;;;;5055343;28;20028;-60
2023/09/17 06:09:46;;;;;;;4.78;4.25;;;;;;;;;;5055364;28;20025;-59
2023/09/17 06:12:12;;;;;;;5.03;4.40;;;;;;;;;;5055220;28;20017;-59
2023/09/17 06:14:39;;;;;;;4.25;3.63;;;;;;;;;;5055448;28;20021;-59
2023/09/17 06:17:05;;;;;;;4.95;3.85;;;;;;;;;;5054688;28;20031;-59
2023/09/17 06:19:33;;;;;;;4.50;3.78;;;;;;;;;;5054592;28;20108;-60
2023/09/17 06:21:59;;;;;;;4.88;3.90;;;;;;;;;;5055076;28;20112;-59
2023/09/17 06:24:25;;;;;;;4.35;3.67;;;;;;;;;;5054469;28;20032;-59
2023/09/17 06:26:50;;;;;;;5.05;3.55;;;;;;;;;;5054357;28;20534;-59
2023/09/17 06:29:16;;;;;;;4.00;3.33;;;;;;;;;;5054740;28;20087;-59
2023/09/17 06:31:43;;;;;;;4.45;3.60;;;;;;;;;;5054326;28;20393;-59
2023/09/17 06:34:10;;;;;;;4.78;3.60;;;;;;;;;;5054741;28;20021;-59
2023/09/17 06:36:36;;;;;;;5.63;3.78;;;;;;;;;;5055008;28;20055;-59
2023/09/17 06:39:06;;;;;;;5.75;4.50;;;;;;;;;;5054731;28;20379;-59
2023/09/17 06:41:32;;;;;;;4.57;3.35;;;;;;;;;;5054455;28;20455;-60
2023/09/17 06:43:58;;;;;;;4.60;3.70;;;;;;;;;;5053864;28;20483;-59
2023/09/17 06:46:25;;;;;;;5.47;4.10;;;;;;;;;;5054620;28;20033;-59
2023/09/17 06:48:51;;;;;;;7.53;5.05;;;;;;;;;;5054388;28;20481;-59
2023/09/17 06:51:17;;;;;;;4.35;3.95;;;;;;;;;;5054158;28;20033;-59
2023/09/17 06:53:43;;;;;;;4.80;3.80;;;;;;;;;;5054162;28;20463;-60
2023/09/17 06:56:09;;;;;;;5.55;4.03;;;;;;;;;;5054514;28;20102;-59
2023/09/17 06:58:35;;;;;;;4.72;4.18;;;;;;;;;;5054430;28;20032;-59
2023/09/17 07:01:01;;;;;;;5.57;4.22;;;;;;;;;;5054413;28;20025;-59
2023/09/17 07:03:27;;;;;;;5.55;4.22;;;;;;;;;;5053755;28;20025;-60
2023/09/17 07:05:53;;;;;;;3.78;3.35;;;;;;;;;;5053490;28;20025;-60
2023/09/17 07:08:19;;;;;;;5.03;4.22;;;;;;;;;;5054495;28;20032;-60
2023/09/17 07:10:45;;;;;;;4.07;3.67;;;;;;;;;;5054172;28;20017;-60
2023/09/17 07:13:12;;;;;;;4.97;4.28;;;;;;;;;;5054204;28;20032;-59
2023/09/17 07:15:37;;;;;;;4.65;4.07;;;;;;;;;;5053725;28;20375;-59
2023/09/17 07:18:04;;;;;;;5.15;4.65;;;;;;;;;;5053348;28;20032;-60
2023/09/17 07:20:30;;;;;;;4.25;3.65;;;;;;;;;;5053428;28;20401;-59
2023/09/17 07:22:56;;;;;;;4.45;3.75;;;;;;;;;;5053500;28;20029;-59
2023/09/17 07:25:22;;;;;;;4.15;3.65;;;;;;;;;;5054114;28;20021;-59
2023/09/17 07:27:48;;;;;;;4.93;4.22;;;;;;;;;;5053864;28;20569;-59
2023/09/17 07:30:15;;;;;;;4.30;3.90;;;;;;;;;;5054075;28;20025;-59
2023/09/17 07:32:41;;;;;;;4.38;3.58;;;;;;;;;;5053339;28;20025;-59
2023/09/17 07:35:08;;;;;;;5.15;3.67;;;;;;;;;;5053513;28;20032;-59
2023/09/17 07:37:34;;;;;;;7.13;4.03;;;;;;;;;;5053753;28;20102;-60
2023/09/17 07:40:01;;;;;;;3.67;3.17;;;;;;;;;;5053933;28;20116;-60
2023/09/17 07:42:27;;;;;;;4.00;3.20;;;;;;;;;;5053383;28;20025;-60
2023/09/17 07:44:53;;;;;;;4.10;3.50;;;;;;;;;;5053852;28;20024;-60
2023/09/17 07:47:19;;;;;;;4.55;3.47;;;;;;;;;;5053104;28;20029;-60
2023/09/17 07:49:45;;;;;;;4.30;3.30;;;;;;;;;;5053547;28;20382;-60
2023/09/17 07:52:12;;;;;;;4.35;3.95;;;;;;;;;;5052978;28;20017;-60
2023/09/17 07:54:39;;;;;;;4.38;3.65;;;;;;;;;;5053622;28;20451;-60
2023/09/17 07:57:05;;;;;;;4.45;3.92;;;;;;;;;;5053269;28;20382;-60
2023/09/17 07:59:31;;;;;;;5.07;3.30;;;;;;;;;;5053992;28;20063;-60
2023/09/17 08:01:58;;;;;;;5.70;4.07;;;;;;;;;;5053770;28;20060;-60
2023/09/17 08:04:24;;;;;;;4.20;3.50;;;;;;;;;;5053413;28;20025;-60
2023/09/17 08:06:50;;;;;;;4.45;3.65;;;;;;;;;;5052969;28;20359;-60
2023/09/17 08:09:17;;;;;;;4.78;3.95;;;;;;;;;;5052994;28;20017;-60
2023/09/17 08:11:43;;;;;;;5.03;3.60;;;;;;;;;;5052875;28;20032;-60
2023/09/17 08:14:09;;;;;;;4.75;4.18;;;;;;;;;;5052757;28;20021;-60
2023/09/17 08:16:35;;;;;;;6.55;4.10;;;;;;;;;;5053310;28;20078;-60
2023/09/17 08:19:01;;;;;;;4.40;3.47;;;;;;;;;;5052780;28;20025;-60
2023/09/17 08:21:27;;;;;;;4.68;3.75;;;;;;;;;;5053043;28;20028;-60
2023/09/17 08:23:53;;;;;;;4.53;2.95;;;;;;;;;;5052945;28;20036;-60
2023/09/17 08:26:20;;;;;;;4.35;3.75;;;;;;;;;;5053354;28;20116;-60
2023/09/17 08:28:47;;;;;;;5.43;3.50;;;;;;;;;;5053402;28;20032;-60
2023/09/17 08:31:13;;;;;;;4.00;3.00;;;;;;;;;;5053176;28;20029;-60
2023/09/17 08:33:39;;;;;;;3.83;3.08;;;;;;;;;;5052945;28;20370;-60
2023/09/17 08:36:05;;;;;;;4.28;3.65;;;;;;;;;;5053432;28;20025;-60
2023/09/17 08:38:31;;;;;;;4.03;3.25;;;;;;;;;;5053274;28;20364;-60
2023/09/17 08:41:00;;;;;;;5.38;3.80;;;;;;;;;;5053620;28;20032;-60
2023/09/17 08:43:26;;;;;;;3.42;2.92;;;;;;;;;;5054197;28;20037;-60
2023/09/17 08:45:52;;;;;;;4.20;3.10;;;;;;;;;;5056865;28;20025;-60
2023/09/17 08:48:18;;;;;;;3.92;3.53;;;;;;;;;;5056334;28;20029;-60
2023/09/17 08:50:50;;;;;;;3.53;2.95;;;;;;;;;;5056499;28;20025;-60
2023/09/17 08:53:18;;;;;;;4.47;3.13;;;;;;;;;;5056175;28;20025;-60
2023/09/17 08:55:45;;;;;;;4.40;2.95;;;;;;;;;;5055758;28;20471;-60
2023/09/17 08:58:18;;;;;;;3.65;3.00;;;;;;;;;;5056612;28;20025;-60
2023/09/17 09:00:49;;;;;;;6.93;3.25;;;;;;;;;;5056785;28;20021;-60
2023/09/17 09:03:15;;;;;;;3.58;3.03;;;;;;;;;;5056381;28;20111;-59
2023/09/17 09:05:43;;;;;;;6.07;3.00;;;;;;;;;;5056559;28;20043;-59
2023/09/17 09:08:10;;;;;;;3.28;2.58;;;;;;;;;;5056545;28;20106;-59
2023/09/17 09:10:36;;;;;;;2.97;2.50;;;;;;;;;;5056527;28;20056;-59
2023/09/17 09:13:03;;;;;;;5.43;2.70;;;;;;;;;;5055725;28;20523;-59
2023/09/17 09:15:29;;;;;;;7.88;3.08;;;;;;;;;;5055808;28;20040;-59
2023/09/17 09:17:55;;;;;;;6.63;2.47;;;;;;;;;;5055542;28;20023;-59
2023/09/17 09:20:22;;;;;;;6.40;2.88;;;;;;;;;;5056244;28;20025;-59
2023/09/17 09:22:48;;;;;;;3.63;2.88;;;;;;;;;;5056102;28;20025;-59
2023/09/17 09:25:14;;;;;;;3.63;3.20;;;;;;;;;;5055459;28;20506;-59
2023/09/17 09:27:40;;;;;;;4.50;2.60;;;;;;;;;;5055277;28;20017;-59
2023/09/17 09:30:10;;;;;;;4.10;2.97;;;;;;;;;;5055811;28;20070;-59
2023/09/17 09:32:36;;;;;;;4.80;2.72;;;;;;;;;;5055514;28;20025;-59
2023/09/17 09:35:03;;;;;;;6.22;2.70;;;;;;;;;;5055447;28;20064;-59
2023/09/17 09:37:29;;;;;;;3.25;2.47;;;;;;;;;;5055490;28;20048;-59
2023/09/17 09:39:56;;;;;;;3.03;1.90;;;;;;;;;;5055326;28;20482;-59
2023/09/17 09:42:23;;;;;;;4.82;1.77;;;;;;;;;;5055391;28;20033;-59
2023/09/17 09:44:51;;;;;;;6.68;1.90;;;;;;;;;;5055230;28;20495;-59
2023/09/17 09:47:17;;;;;;;4.57;2.15;;;;;;;;;;5054947;28;20485;-59
2023/09/17 09:49:44;;;;;;;6.13;1.85;;;;;;;;;;5055654;28;20032;-59
2023/09/17 09:52:14;;;;;;;5.45;2.20;;;;;;;;;;5055430;28;20359;-59
2023/09/17 09:54:40;;;;;;;3.50;2.38;;;;;;;;;;5053920;28;20021;-59
2023/09/17 09:57:07;;;;;;;4.35;2.25;;;;;;;;;;5055062;28;20442;-59
2023/09/17 09:59:36;;;;;;;3.97;1.75;;;;;;;;;;5055528;28;20056;-59
2023/09/17 10:02:03;;;;;;;5.27;2.90;;;;;;;;;;5055502;28;20397;-59
2023/09/17 10:04:29;;;;;;;5.68;2.45;;;;;;;;;;5055404;28;20309;-59
2023/09/17 10:06:56;;;;;;;3.97;2.20;;;;;;;;;;5054813;28;20025;-59
2023/09/17 10:09:23;;;;;;;3.28;1.83;;;;;;;;;;5055652;28;20024;-59
2023/09/17 10:11:49;;;;;;;3.25;1.65;;;;;;;;;;5054765;28;20020;-59
2023/09/17 10:14:15;;;;;;;2.67;1.73;;;;;;;;;;5054485;28;20029;-59
2023/09/17 10:16:41;;;;;;;3.60;2.05;;;;;;;;;;5054405;28;20374;-59
2023/09/17 10:19:07;;;;;;;3.92;2.33;;;;;;;;;;5054622;28;20017;-59
2023/09/17 10:21:37;;;;;;;3.22;1.88;;;;;;;;;;5054495;28;20021;-59
2023/09/17 10:24:03;;;;;;;6.95;2.20;;;;;;;;;;5054829;28;20037;-59
2023/09/17 10:26:32;;;;;;;3.05;1.95;;;;;;;;;;5054376;28;20055;-59
2023/09/17 10:29:00;;;;;;;5.13;2.38;;;;;;;;;;5054590;28;20107;-60
2023/09/17 10:31:27;;;;;;;3.78;2.05;;;;;;;;;;5054298;28;20025;-59
2023/09/17 10:33:53;;;;;;;3.50;1.75;;;;;;;;;;5054339;28;20029;-60
2023/09/17 10:36:19;;;;;;;4.97;1.98;;;;;;;;;;5053914;28;20051;-60
2023/09/17 10:38:46;;;;;;;2.95;1.75;;;;;;;;;;5055079;28;20046;-60
2023/09/17 10:41:13;;;;;;;3.58;1.98;;;;;;;;;;5054417;28;20024;-59
2023/09/17 10:43:40;;;;;;;3.13;1.67;;;;;;;;;;5054103;28;20024;-59
2023/09/17 10:46:06;;;;;;;2.50;1.63;;;;;;;;;;5054133;28;20021;-59
2023/09/17 10:48:33;;;;;;;3.15;1.75;;;;;;;;;;5053926;28;20048;-59
2023/09/17 10:50:59;;;;;;;4.53;1.65;;;;;;;;;;5053570;28;20104;-60
2023/09/17 10:53:26;;;;;;;2.85;1.80;;;;;;;;;;5054759;28;20025;-59
2023/09/17 10:55:57;;;;;;;4.45;2.00;;;;;;;;;;5053674;28;20570;-60
2023/09/17 10:58:34;;;;;;;2.58;1.23;;;;;;;;;;5054488;28;20371;-60
2023/09/17 11:01:01;;;;;;;3.83;2.03;;;;;;;;;;5054347;28;20028;-60
2023/09/17 11:03:29;;;;;;;3.70;1.45;;;;;;;;;;5053795;28;20029;-60
2023/09/17 11:05:56;;;;;;;2.40;1.30;;;;;;;;;;5053394;28;20121;-60
2023/09/17 11:08:22;;;;;;;5.20;1.88;;;;;;;;;;5054281;28;20028;-60
2023/09/17 11:10:48;;;;;;;2.78;1.40;;;;;;;;;;5054312;28;20029;-59
2023/09/17 11:13:15;;;;;;;3.63;1.92;;;;;;;;;;5053654;28;20021;-59
2023/09/17 11:15:44;;;;;;;2.22;1.42;;;;;;;;;;5053664;28;20375;-60
2023/09/17 11:18:11;;;;;;;2.90;1.90;;;;;;;;;;5054112;28;20021;-59
2023/09/17 11:20:56;;;;;;;3.22;1.77;;;;;;;;;;5054466;28;20118;-60
2023/09/17 11:23:35;;;;;;;4.57;1.30;;;;;;;;;;5053588;28;20029;-59
2023/09/17 11:26:05;;;;;;;5.90;1.80;;;;;;;;;;5054090;28;20029;-59
2023/09/17 11:28:36;;;;;;;9.97;1.93;;;;;;;;;;5053547;28;20484;-59
2023/09/17 11:31:03;;;;;;;2.17;1.42;;;;;;;;;;5054042;28;20024;-60
2023/09/17 11:33:30;;;;;;;5.47;2.20;;;;;;;;;;5053927;28;20029;-60
2023/09/17 11:35:59;;;;;;;1.92;1.02;;;;;;;;;;5054003;28;20108;-60
2023/09/17 11:38:25;;;;;;;2.50;1.77;;;;;;;;;;5054032;28;20348;-60
2023/09/17 11:41:05;;;;;;;5.05;1.67;;;;;;;;;;5053942;28;20025;-60
2023/09/17 11:43:32;;;;;;;2.87;1.63;;;;;;;;;;5053309;28;20053;-59
2023/09/17 11:45:58;;;;;;;3.35;1.63;;;;;;;;;;5053019;28;20812;-60
2023/09/17 11:48:25;;;;;;;2.47;1.30;;;;;;;;;;5053723;28;20048;-60
2023/09/17 11:50:52;;;;;;;2.45;1.73;;;;;;;;;;5053226;28;20029;-59
2023/09/17 11:53:19;;;;;;;2.08;1.13;;;;;;;;;;5053769;28;20020;-60
2023/09/17 11:55:49;;;;;;;3.03;1.48;;;;;;;;;;5053193;28;20029;-60
2023/09/17 11:58:15;;;;;;;2.42;1.35;;;;;;;;;;5053784;28;20025;-60
2023/09/17 12:00:41;;;;;;;3.03;1.75;;;;;;;;;;5053928;28;20032;-60
2023/09/17 12:03:10;;;;;;;6.05;2.10;;;;;;;;;;5053523;28;20029;-60
2023/09/17 12:05:36;;;;;;;2.70;1.73;;;;;;;;;;5053671;28;20033;-60
2023/09/17 12:08:02;;;;;;;4.20;1.88;;;;;;;;;;5053107;28;20194;-60
2023/09/17 12:10:29;;;;;;;6.18;1.67;;;;;;;;;;5053677;28;20036;-59
2023/09/17 12:12:55;;;;;;;3.08;1.23;;;;;;;;;;5053015;28;20100;-59
2023/09/17 12:15:21;;;;;;;2.63;1.50;;;;;;;;;;5053145;28;20025;-60
2023/09/17 12:17:48;;;;;;;3.65;1.65;;;;;;;;;;5054059;28;20513;-59
2023/09/17 12:20:30;;;;;;;1.90;1.00;;;;;;;;;;5057404;28;20367;-60
2023/09/17 12:22:57;;;;;;;2.95;1.70;;;;;;;;;;5057377;28;20029;-60
2023/09/17 12:25:23;;;;;;;2.38;1.33;;;;;;;;;;5056758;28;20032;-60
2023/09/17 12:27:49;;;;;;;3.97;1.48;;;;;;;;;;5056714;28;20370;-60
2023/09/17 12:30:16;;;;;;;3.60;1.75;;;;;;;;;;5057566;28;20021;-60
2023/09/17 12:32:42;;;;;;;4.32;2.30;;;;;;;;;;5057190;28;20025;-60
2023/09/17 12:35:08;;;;;;;3.70;1.55;;;;;;;;;;5056821;28;20023;-60
2023/09/17 12:37:34;;;;;;;2.58;1.35;;;;;;;;;;5056550;28;20455;-60
2023/09/17 12:40:00;;;;;;;5.30;1.42;;;;;;;;;;5057275;28;20127;-60
2023/09/17 12:42:26;;;;;;;1.90;1.30;;;;;;;;;;5056447;28;20455;-60
2023/09/17 12:44:53;;;;;;;4.03;1.48;;;;;;;;;;5056505;28;20098;-60
2023/09/17 12:47:19;;;;;;;3.47;1.45;;;;;;;;;;5056379;28;20371;-60
2023/09/17 12:49:45;;;;;;;2.50;1.35;;;;;;;;;;5056972;28;20083;-60
2023/09/17 12:52:12;;;;;;;2.60;1.55;;;;;;;;;;5056320;28;20017;-60
2023/09/17 12:54:38;;;;;;;2.03;1.23;;;;;;;;;;5056224;28;20112;-60
2023/09/17 12:57:04;;;;;;;3.47;1.73;;;;;;;;;;5056186;28;20048;-60
2023/09/17 12:59:34;;;;;;;5.03;1.35;;;;;;;;;;5056863;28;20021;-60
2023/09/17 13:02:03;;;;;;;5.15;1.92;;;;;;;;;;5055932;28;20033;-60
2023/09/17 13:04:36;;;;;;;3.15;1.42;;;;;;;;;;5054607;28;20439;-60
2023/09/17 13:07:04;;;;;;;4.50;1.60;;;;;;;;;;5056386;28;20025;-60
2023/09/17 13:09:31;;;;;;;4.65;2.13;;;;;;;;;;5055820;28;20530;-59
2023/09/17 13:11:59;;;;;;;3.95;1.60;;;;;;;;;;5056407;28;20067;-60
2023/09/17 13:14:25;;;;;;;3.45;1.30;;;;;;;;;;5055839;28;20166;-60
2023/09/17 13:16:52;;;;;;;3.47;1.25;;;;;;;;;;5055649;28;20053;-60
2023/09/17 13:19:18;;;;;;;2.65;1.38;;;;;;;;;;5056533;28;20032;-60
2023/09/17 13:21:44;;;;;;;4.10;1.33;;;;;;;;;;5055574;28;20041;-60
2023/09/17 13:24:10;;;;;;;5.43;1.55;;;;;;;;;;5056205;28;20033;-60
2023/09/17 13:26:36;;;;;;;6.88;1.60;;;;;;;;;;5055609;28;20023;-60
2023/09/17 13:29:03;;;;;;;5.40;1.60;;;;;;;;;;5055812;28;20052;-60
2023/09/17 13:31:29;;;;;;;4.55;1.65;;;;;;;;;;5056084;28;20025;-60
2023/09/17 13:33:56;;;;;;;1.98;1.13;;;;;;;;;;5055743;28;20448;-60
2023/09/17 13:36:22;;;;;;;6.05;1.52;;;;;;;;;;5055642;28;20048;-60
2023/09/17 13:38:48;;;;;;;5.40;1.90;;;;;;;;;;5055755;28;20079;-60
2023/09/17 13:41:20;;;;;;;3.47;1.40;;;;;;;;;;5055310;28;20451;-60
2023/09/17 13:43:46;;;;;;;4.68;1.50;;;;;;;;;;5055320;28;20091;-60
2023/09/17 13:46:16;;;;;;;4.95;2.13;;;;;;;;;;5055587;28;20475;-60
2023/09/17 13:48:42;;;;;;;;;;;;;;;;;;5055930;28;20443;-60
2023/09/17 13:51:09;;;;;;;2.50;1.70;;;;;;;;;;5055048;28;19905;-60
2023/09/17 13:53:35;;;;;;;3.83;1.15;;;;;;;;;;5054711;28;20585;-60
2023/09/17 13:56:01;;;;;;;3.17;1.67;;;;;;;;;;5054953;28;20103;-60
2023/09/17 13:58:27;;;;;;;3.10;1.20;;;;;;;;;;5055029;28;20112;-60
2023/09/17 14:00:53;;;;;;;2.63;1.50;;;;;;;;;;5055239;28;20163;-60
2023/09/17 14:03:19;;;;;;;3.63;1.85;;;;;;;;;;5054885;28;20017;-60
2023/09/17 14:05:46;;;;;;;4.03;1.38;;;;;;;;;;5055152;28;20017;-60
2023/09/17 14:08:12;;;;;;;3.53;1.25;;;;;;;;;;5055344;28;20414;-60
2023/09/17 14:10:41;;;;;;;4.97;1.80;;;;;;;;;;5054967;28;20111;-60
2023/09/17 14:13:06;;;;;;;3.50;1.30;;;;;;;;;;5055763;28;20384;-60
2023/09/17 14:15:33;;;;;;;3.13;1.45;;;;;;;;;;5054899;28;20082;-60
2023/09/17 14:17:59;;;;;;;3.35;1.48;;;;;;;;;;5054468;28;20049;-60
2023/09/17 14:20:25;;;;;;;3.28;1.45;;;;;;;;;;5055148;28;20061;-60
2023/09/17 14:22:51;;;;;;;2.65;1.08;;;;;;;;;;5054469;28;20025;-60
2023/09/17 14:25:17;;;;;;;2.70;1.27;;;;;;;;;;5055149;28;20029;-60
2023/09/17 14:27:43;;;;;;;1.70;1.02;;;;;;;;;;5054413;28;20032;-60
2023/09/17 14:30:16;;;;;;;1.88;1.20;;;;;;;;;;5054991;28;20109;-60
2023/09/17 14:32:42;;;;;;;1.60;1.00;;;;;;;;;;5054437;28;20101;-60
2023/09/17 14:35:09;;;;;;;2.85;1.35;;;;;;;;;;5054311;28;20044;-59
2023/09/17 14:37:34;;;;;;;2.67;1.33;;;;;;;;;;5053883;28;20068;-60
2023/09/17 14:40:01;;;;;;;3.95;1.13;;;;;;;;;;5054453;28;20021;-60